Catania, Italy

11:02 AM CET op 26 februari 2017 (GMT +0100)
Fontanarossa | | Change Station

Hoogte 56 ft 37.47 °N, 15.05 °E | Updated 12 minutes ago

Light Rain
Lichte regen
57 °F
Voelt als 57 °F
N
15
Wind Variabel Wind van ONO

Vandaag
Hoog -- | Laag -- °F
--% Kans op neerslag
Gisteren
Hoog -- | Laag -- °F
Precip. -- inches
Druk 29.98 inches
Zicht 5.0 mijlen
Wolken Licht bewolkt 2000 ft
Merendeels bewolkt 5000 ft
Dauwpunt 54 °F
Vochtigheid 88%
Neerslag 0.00 inches
Dikte sneeuw Niet beschikbaar.
6:35 AM 5:50 PM
Afnemende halvemaan, 0% visible
METAR LICC 260950Z 06013KT 8000 -RA SCT020 BKN050 14/12 Q1015
Druk 29.98 inches
Zicht 5.0 mijlen
Wolken Licht bewolkt 2000 ft
Merendeels bewolkt 5000 ft
Dauwpunt 54 °F
Vochtigheid 88%
Neerslag 0.00 inches
Dikte sneeuw Niet beschikbaar.
6:35 AM 5:50 PM
Afnemende halvemaan, 0% visible
METAR LICC 260950Z 06013KT 8000 -RA SCT020 BKN050 14/12 Q1015

Get Your Daily Forecast Email!

Thanks for signing up!

Be on the lookout for a verification email in your inbox.

You'll start receiving the daily forecast at 8 AM.

×

10-Day Weather Forecast

×

Almanac

Astronomie

Feb. 26, 2017 Opkomst Ondergang
Werkelijke tijd
Burgerlijke schemering
Nautische schemering
Astronomische schemering
Maan
Golflengte van het zichtbare licht
Daglengte
Tomorrow will be .
, % of the Moon is Illuminated

Extremen vandaag

Country Highs Country Lows

Community

WunderPhotos

Upload Photos

1,962,540 foto’s ge-upload!

WunderBlog® & News

Nearby

Luchtkwaliteit

  Luchtkwaliteit LK-index Verontreinigende stof
Not available.

Dikte sneeuw

Station Depth Geometrische hoogte

Aardbevingen

Stad Distance Mag. Time & Date
Minimum magnitude displayed is 2.5.

Watertemperatuur langs de kust

Plaats Temperatuur

Stations

Nabije weerstations

Locatie station Temp. Gevoelstemperatuur Dauwpunt Vochtigheid Wind Precip. Hoogte Geactualiseerd Type